createdAt,value
2019-05-09T00:00:43.944Z,94171.84
2019-05-09T00:03:13.784Z,94179.63
2019-05-09T00:05:44.105Z,94166.62
2019-05-09T00:08:13.885Z,94164.34
2019-05-09T00:10:45.003Z,94166.62
2019-05-09T00:13:13.827Z,94162.45
2019-05-09T00:15:43.640Z,94161.14
2019-05-09T00:18:14.210Z,94166.84
2019-05-09T00:20:50.755Z,94166.69
2019-05-09T00:23:19.432Z,94166.20
2019-05-09T00:25:48.110Z,94167.84
2019-05-09T00:28:16.797Z,94162.67
2019-05-09T00:30:59.001Z,94168.41
2019-05-09T00:33:34.346Z,94166.66
2019-05-09T00:36:04.123Z,94168.67
2019-05-09T00:38:40.880Z,94165.66
2019-05-09T00:41:11.012Z,94164.05
2019-05-09T00:43:43.517Z,94167.79
2019-05-09T00:46:16.249Z,94158.95
2019-05-09T00:48:54.255Z,94159.32
2019-05-09T00:51:23.378Z,94161.80
2019-05-09T00:53:53.705Z,94156.58
2019-05-09T00:56:23.970Z,94153.15
2019-05-09T00:58:53.682Z,94155.77
2019-05-09T01:01:24.048Z,94150.88
2019-05-09T01:03:53.653Z,94141.13
2019-05-09T01:06:23.954Z,94140.34
2019-05-09T01:08:53.800Z,94141.79
2019-05-09T01:11:24.237Z,94142.30
2019-05-09T01:13:54.302Z,94143.06
2019-05-09T01:16:24.290Z,94140.58
2019-05-09T01:18:54.626Z,94138.64
2019-05-09T01:21:24.139Z,94134.81
2019-05-09T01:23:53.921Z,94136.55
2019-05-09T01:26:23.997Z,94136.40
2019-05-09T01:28:53.860Z,94138.13
2019-05-09T01:31:24.076Z,94040.13
2019-05-09T01:34:04.156Z,94141.56
2019-05-09T01:36:50.895Z,94132.27
2019-05-09T01:39:19.593Z,94131.84
2019-05-09T01:41:48.259Z,94135.45
2019-05-09T01:44:17.042Z,94129.33
2019-05-09T01:46:45.698Z,94135.61
2019-05-09T01:49:14.629Z,94140.74
2019-05-09T01:51:44.482Z,94132.83
2019-05-09T01:54:14.384Z,94127.19
2019-05-09T01:56:43.177Z,94122.97
2019-05-09T01:59:13.721Z,94129.24
2019-05-09T02:01:43.473Z,94131.15
2019-05-09T02:04:13.763Z,94134.23
2019-05-09T02:06:44.058Z,94129.81
2019-05-09T02:09:14.024Z,94124.27
2019-05-09T02:11:45.618Z,94133.94
2019-05-09T02:14:15.299Z,94129.52
2019-05-09T02:16:48.291Z,94128.08
2019-05-09T02:19:18.551Z,94131.63
2019-05-09T02:21:47.232Z,94134.50
2019-05-09T02:24:15.935Z,94131.48
2019-05-09T02:26:44.623Z,94127.31
2019-05-09T02:29:13.984Z,94133.16
2019-05-09T02:31:44.554Z,94124.81
2019-05-09T02:34:14.797Z,94126.72
2019-05-09T02:36:43.693Z,94128.36
2019-05-09T02:39:12.431Z,94122.35
2019-05-09T02:41:58.939Z,94134.06
2019-05-09T02:44:11.509Z,94128.59
2019-05-09T02:46:41.741Z,94126.96
2019-05-09T02:49:10.433Z,94128.47
2019-05-09T02:51:39.130Z,94127.41
2019-05-09T02:54:09.871Z,94130.95
2019-05-09T02:56:38.644Z,94130.36
2019-05-09T02:59:09.822Z,94132.48
2019-05-09T03:01:49.256Z,94129.74
2019-05-09T03:04:18.921Z,94127.77
2019-05-09T03:06:49.251Z,94126.50
2019-05-09T03:09:19.044Z,94125.26
2019-05-09T03:11:48.786Z,94122.05
2019-05-09T03:14:19.402Z,94109.74
2019-05-09T03:16:49.112Z,94056.90
2019-05-09T03:19:19.418Z,94121.27
2019-05-09T03:21:53.010Z,94125.09
2019-05-09T03:24:21.680Z,94121.62
2019-05-09T03:26:51.920Z,94120.26
2019-05-09T03:29:25.151Z,94118.33
2019-05-09T03:31:54.518Z,94117.77
2019-05-09T03:34:23.204Z,94117.30
2019-05-09T03:36:50.567Z,94115.60
2019-05-09T03:39:19.248Z,94114.33
2019-05-09T03:41:48.712Z,94113.55
2019-05-09T03:44:18.025Z,94116.45
2019-05-09T03:46:48.569Z,94116.03
2019-05-09T03:49:18.826Z,94111.44
2019-05-09T03:51:48.191Z,94108.87
2019-05-09T03:54:18.406Z,94113.86
2019-05-09T03:57:05.097Z,94119.50
2019-05-09T03:59:33.818Z,94119.74
2019-05-09T04:02:02.557Z,94115.43
2019-05-09T04:04:31.220Z,94114.94
2019-05-09T04:06:59.892Z,94113.84
2019-05-09T04:09:28.712Z,94115.80
2019-05-09T04:11:58.344Z,94106.69
2019-05-09T04:14:29.356Z,94109.95
2019-05-09T04:16:59.499Z,94110.66
2019-05-09T04:19:28.175Z,94105.84
2019-05-09T04:21:57.606Z,94105.98
2019-05-09T04:24:28.068Z,94105.04
2019-05-09T04:26:58.604Z,94100.98
2019-05-09T04:29:28.573Z,94101.05
2019-05-09T04:31:57.679Z,94094.73
2019-05-09T04:34:27.530Z,94096.67
2019-05-09T04:36:57.616Z,94092.15
2019-05-09T04:39:28.318Z,94085.51
2019-05-09T04:42:03.458Z,94089.44
2019-05-09T04:44:32.819Z,94084.66
2019-05-09T04:47:03.548Z,94088.17
2019-05-09T04:49:39.240Z,94080.20
2019-05-09T04:52:02.376Z,94084.66
2019-05-09T04:54:31.069Z,94078.94
2019-05-09T04:56:59.726Z,94085.30
2019-05-09T04:59:28.582Z,94078.33
2019-05-09T05:01:58.863Z,94080.03
2019-05-09T05:04:28.243Z,94071.72
2019-05-09T05:06:58.558Z,94071.58
2019-05-09T05:09:27.865Z,94074.44
2019-05-09T05:11:57.931Z,94071.63
2019-05-09T05:14:28.624Z,94070.64
2019-05-09T05:17:06.725Z,94065.89
2019-05-09T05:19:31.157Z,94063.69
2019-05-09T05:22:00.034Z,94058.56
2019-05-09T05:24:30.280Z,94054.91
2019-05-09T05:26:58.995Z,94056.83
2019-05-09T05:29:28.239Z,94057.67
2019-05-09T05:31:59.015Z,94056.53
2019-05-09T05:34:35.067Z,94062.52
2019-05-09T05:37:03.866Z,94055.72
2019-05-09T05:39:32.527Z,94062.90
2019-05-09T05:42:01.428Z,94057.49
2019-05-09T05:44:30.097Z,94051.62
2019-05-09T05:47:07.750Z,94025.66
2019-05-09T05:49:38.497Z,94043.80
2019-05-09T05:52:08.079Z,94044.84
2019-05-09T05:54:37.835Z,94054.02
2019-05-09T05:57:10.451Z,94049.08
2019-05-09T05:59:41.017Z,94048.67
2019-05-09T06:02:09.653Z,94047.47
2019-05-09T06:04:38.452Z,94047.75
2019-05-09T06:07:08.062Z,94061.75
2019-05-09T06:09:37.936Z,94064.52
2019-05-09T06:12:08.237Z,94047.64
2019-05-09T06:14:37.916Z,94051.83
2019-05-09T06:17:08.715Z,94056.05
2019-05-09T06:19:38.039Z,94056.19
2019-05-09T06:22:08.138Z,94049.54
2019-05-09T06:24:38.669Z,94047.74
2019-05-09T06:27:10.167Z,94038.45
2019-05-09T06:29:38.785Z,94043.01
2019-05-09T06:32:08.165Z,94033.73
2019-05-09T06:34:41.783Z,94030.78
2019-05-09T06:37:08.969Z,94030.58
2019-05-09T06:39:38.280Z,94035.19
2019-05-09T06:42:08.928Z,94026.48
2019-05-09T06:44:45.033Z,94022.61
2019-05-09T06:47:15.304Z,94019.87
2019-05-09T06:49:45.597Z,94026.79
2019-05-09T06:52:14.283Z,94016.96
2019-05-09T06:54:42.953Z,94021.81
2019-05-09T06:57:11.672Z,94016.66
2019-05-09T06:59:42.910Z,94013.91
2019-05-09T07:02:13.159Z,94012.09
2019-05-09T07:04:43.500Z,94006.97
2019-05-09T07:07:17.652Z,94007.44
2019-05-09T07:09:54.347Z,94000.84
2019-05-09T07:12:23.028Z,94006.96
2019-05-09T07:14:51.729Z,93998.77
2019-05-09T07:17:20.582Z,93993.77
2019-05-09T07:19:49.504Z,93996.71
2019-05-09T07:22:22.702Z,93990.83
2019-05-09T07:25:10.906Z,93984.00
2019-05-09T07:27:40.267Z,93979.39
2019-05-09T07:30:18.063Z,93978.92
2019-05-09T07:32:48.636Z,93984.61
2019-05-09T07:35:18.551Z,93978.83
2019-05-09T07:37:48.746Z,93977.40
2019-05-09T07:40:18.210Z,93983.01
2019-05-09T07:42:48.024Z,93977.06
2019-05-09T07:45:17.871Z,93973.79
2019-05-09T07:47:47.870Z,93951.58
2019-05-09T07:50:18.966Z,93966.39
2019-05-09T07:52:48.012Z,93948.55
2019-05-09T07:55:18.118Z,93961.78
2019-05-09T07:57:54.649Z,93966.42
2019-05-09T08:00:20.358Z,93961.08
2019-05-09T08:02:50.545Z,93967.28
2019-05-09T08:05:28.065Z,93957.78
2019-05-09T08:07:58.624Z,93958.16
2019-05-09T08:10:30.566Z,93959.91
2019-05-09T08:12:58.687Z,93953.97
2019-05-09T08:15:28.217Z,93950.72
2019-05-09T08:17:59.048Z,93947.61
2019-05-09T08:20:27.892Z,93947.61
2019-05-09T08:23:01.469Z,93947.47
2019-05-09T08:25:27.901Z,93938.50
2019-05-09T08:27:58.797Z,93939.99
2019-05-09T08:30:35.568Z,93937.55
2019-05-09T08:32:59.938Z,93935.55
2019-05-09T08:35:28.479Z,93929.77
2019-05-09T08:37:58.403Z,93935.81
2019-05-09T08:40:28.491Z,93935.81
2019-05-09T08:42:58.906Z,93931.73
2019-05-09T08:45:31.293Z,93927.22
2019-05-09T08:47:58.481Z,93934.01
2019-05-09T08:50:35.109Z,93936.08
2019-05-09T08:53:04.009Z,93928.97
2019-05-09T08:55:32.705Z,93924.29
2019-05-09T08:58:01.512Z,93922.55
2019-05-09T09:00:30.391Z,93924.86
2019-05-09T09:02:59.322Z,93914.36
2019-05-09T09:05:28.842Z,93911.14
2019-05-09T09:07:58.087Z,93912.79
2019-05-09T09:10:29.155Z,93909.30
2019-05-09T09:12:58.066Z,93903.34
2019-05-09T09:15:50.017Z,93908.10
2019-05-09T09:17:57.998Z,93907.20
2019-05-09T09:20:28.757Z,93898.14
2019-05-09T09:22:58.315Z,93906.20
2019-05-09T09:25:28.705Z,93905.95
2019-05-09T09:27:58.348Z,93907.05
2019-05-09T09:30:29.286Z,93903.17
2019-05-09T09:32:58.766Z,93877.72
2019-05-09T09:35:27.994Z,93902.47
2019-05-09T09:37:57.993Z,93907.80
2019-05-09T09:40:27.885Z,93899.97
2019-05-09T09:42:58.202Z,93883.02
2019-05-09T09:45:28.187Z,93888.83
2019-05-09T09:47:59.282Z,93890.16
2019-05-09T09:50:28.107Z,93885.17
2019-05-09T09:52:58.721Z,93880.20
2019-05-09T09:55:27.959Z,93882.70
2019-05-09T09:57:57.771Z,93882.91
2019-05-09T10:00:53.725Z,93873.77
2019-05-09T10:03:23.593Z,93844.28
2019-05-09T10:05:52.291Z,93863.66
2019-05-09T10:08:21.110Z,93855.66
2019-05-09T10:10:49.989Z,93860.63
2019-05-09T10:13:18.760Z,93851.22
2019-05-09T10:15:49.117Z,93851.22
2019-05-09T10:18:32.286Z,93851.42
2019-05-09T10:21:05.626Z,93847.31
2019-05-09T10:23:34.350Z,93850.61
2019-05-09T10:26:03.115Z,93844.44
2019-05-09T10:28:31.827Z,93844.34
2019-05-09T10:31:00.707Z,93843.61
2019-05-09T10:33:29.449Z,93843.61
2019-05-09T10:36:04.368Z,93843.84
2019-05-09T10:38:28.720Z,93841.39
2019-05-09T10:41:01.114Z,93840.13
2019-05-09T10:43:37.945Z,93839.41
2019-05-09T10:46:20.960Z,93838.42
2019-05-09T10:48:54.305Z,93827.17
2019-05-09T10:51:22.985Z,93839.61
2019-05-09T10:53:51.719Z,93834.80
2019-05-09T10:56:21.092Z,93831.86
2019-05-09T10:58:49.792Z,93826.47
2019-05-09T11:01:18.781Z,93828.36
2019-05-09T11:03:48.490Z,93832.02
2019-05-09T11:06:18.319Z,93827.30
2019-05-09T11:08:47.858Z,93827.25
2019-05-09T11:11:18.381Z,93800.97
2019-05-09T11:13:48.178Z,93839.70
2019-05-09T11:16:18.371Z,93837.11
2019-05-09T11:18:48.211Z,93835.36
2019-05-09T11:21:19.336Z,93834.09
2019-05-09T11:23:49.058Z,93831.47
2019-05-09T11:26:18.316Z,93828.55
2019-05-09T11:28:47.460Z,93828.05
2019-05-09T11:31:18.509Z,93827.73
2019-05-09T11:33:48.565Z,93834.59
2019-05-09T11:36:20.582Z,93827.53
2019-05-09T11:38:49.585Z,93829.73
2019-05-09T11:41:19.667Z,93823.41
2019-05-09T11:43:48.853Z,93823.41
2019-05-09T11:46:18.194Z,93828.83
2019-05-09T11:48:47.258Z,93829.84
2019-05-09T11:51:20.363Z,93832.59
2019-05-09T11:53:48.639Z,93827.64
2019-05-09T11:56:18.310Z,93826.17
2019-05-09T11:58:48.145Z,93825.54
2019-05-09T12:01:18.985Z,93820.76
2019-05-09T12:03:51.595Z,93827.42
2019-05-09T12:06:20.618Z,93823.69
2019-05-09T12:08:49.612Z,93837.45
2019-05-09T12:11:19.043Z,93827.31
2019-05-09T12:13:48.793Z,93827.97
2019-05-09T12:16:18.651Z,93828.77
2019-05-09T12:18:48.745Z,93825.44
2019-05-09T12:21:19.155Z,93821.28
2019-05-09T12:23:49.121Z,93815.30
2019-05-09T12:26:18.421Z,93811.77
2019-05-09T12:28:48.335Z,93796.91
2019-05-09T12:31:18.224Z,93800.15
2019-05-09T12:33:48.337Z,93799.15
2019-05-09T12:36:19.160Z,93802.53
2019-05-09T12:38:49.907Z,93801.80
2019-05-09T12:41:19.243Z,93796.16
2019-05-09T12:43:48.248Z,93792.17
2019-05-09T12:46:16.939Z,93786.00
2019-05-09T12:48:47.965Z,93780.44
2019-05-09T12:51:18.413Z,93776.38
2019-05-09T12:53:48.793Z,93768.55
2019-05-09T12:56:18.775Z,93760.69
2019-05-09T12:58:47.796Z,93765.88
2019-05-09T13:01:18.857Z,93764.05
2019-05-09T13:03:48.503Z,93759.41
2019-05-09T13:06:20.054Z,93690.17
2019-05-09T13:08:48.192Z,93758.80
2019-05-09T13:11:18.762Z,93757.85
2019-05-09T13:13:48.018Z,93767.34
2019-05-09T13:16:18.479Z,93744.83
2019-05-09T13:19:06.624Z,93745.34
2019-05-09T13:21:38.358Z,93733.48
2019-05-09T13:24:08.431Z,93734.18
2019-05-09T13:26:38.497Z,93730.00
2019-05-09T13:29:08.087Z,93716.59
2019-05-09T13:31:39.147Z,93693.36
2019-05-09T13:34:08.146Z,93713.63
2019-05-09T13:36:37.070Z,93699.02
2019-05-09T13:39:08.989Z,93695.73
2019-05-09T13:41:39.254Z,93707.98
2019-05-09T13:44:13.314Z,93701.34
2019-05-09T13:46:43.162Z,93687.48
2019-05-09T13:49:15.527Z,93684.05
2019-05-09T13:51:51.398Z,93681.84
2019-05-09T13:54:14.625Z,93618.95
2019-05-09T13:56:43.425Z,93690.14
2019-05-09T13:59:12.252Z,93690.14
2019-05-09T14:01:41.051Z,93688.34
2019-05-09T14:04:09.737Z,93695.19
2019-05-09T14:06:40.426Z,93690.04
2019-05-09T14:09:10.689Z,93693.61
2019-05-09T14:11:39.690Z,93691.19
2019-05-09T14:14:08.471Z,93692.75
2019-05-09T14:16:38.988Z,93682.05
2019-05-09T14:19:26.212Z,93680.95
2019-05-09T14:21:38.347Z,93682.08
2019-05-09T14:24:15.194Z,93677.69
2019-05-09T14:26:37.742Z,93676.25
2019-05-09T14:29:06.448Z,93691.71
2019-05-09T14:31:35.194Z,93691.61
2019-05-09T14:34:03.854Z,93679.88
2019-05-09T14:36:32.545Z,93668.17
2019-05-09T14:39:01.409Z,93664.87
2019-05-09T14:41:30.291Z,93667.62
2019-05-09T14:43:59.821Z,93666.86
2019-05-09T14:46:33.752Z,93665.55
2019-05-09T14:48:59.909Z,93662.50
2019-05-09T14:51:28.700Z,93659.42
2019-05-09T14:53:59.466Z,93654.30
2019-05-09T14:56:28.137Z,93654.02
2019-05-09T14:58:58.059Z,93651.94
2019-05-09T15:01:28.838Z,93654.66
2019-05-09T15:03:58.640Z,93658.12
2019-05-09T15:06:28.320Z,93667.28
2019-05-09T15:08:58.184Z,93662.92
2019-05-09T15:11:28.268Z,93662.52
2019-05-09T15:13:58.438Z,93665.56
2019-05-09T15:16:28.200Z,93673.00
2019-05-09T15:18:58.353Z,93658.84
2019-05-09T15:21:27.439Z,93650.45
2019-05-09T15:23:58.467Z,93650.05
2019-05-09T15:26:27.551Z,93646.51
2019-05-09T15:28:57.821Z,93647.47
2019-05-09T15:31:28.622Z,93646.90
2019-05-09T15:33:57.315Z,93647.14
2019-05-09T15:36:26.014Z,93643.36
2019-05-09T15:38:54.691Z,93636.20
2019-05-09T15:41:23.388Z,93640.28
2019-05-09T15:43:52.067Z,93646.52
2019-05-09T15:46:27.717Z,93645.13
2019-05-09T15:48:55.667Z,93644.39
2019-05-09T15:51:24.385Z,93642.70
2019-05-09T15:53:53.078Z,93644.31
2019-05-09T15:56:21.858Z,93641.80
2019-05-09T15:58:50.564Z,93643.25
2019-05-09T16:01:19.233Z,93635.16
2019-05-09T16:03:48.616Z,93636.02
2019-05-09T16:06:19.755Z,93628.97
2019-05-09T16:08:48.042Z,93633.08
2019-05-09T16:11:18.047Z,93641.50
2019-05-09T16:13:48.010Z,93641.51
2019-05-09T16:16:17.623Z,93638.66
2019-05-09T16:18:48.604Z,93638.66
2019-05-09T16:21:16.929Z,93644.44
2019-05-09T16:23:45.622Z,93630.78
2019-05-09T16:26:14.401Z,93638.33
2019-05-09T16:28:43.160Z,93644.78
2019-05-09T16:31:11.931Z,93637.31
2019-05-09T16:33:40.711Z,93631.53
2019-05-09T16:36:09.386Z,93642.61
2019-05-09T16:38:45.717Z,93646.58
2019-05-09T16:41:08.581Z,93645.33
2019-05-09T16:43:39.175Z,93641.55
2019-05-09T16:46:07.732Z,93634.39
2019-05-09T16:48:36.366Z,93630.64
2019-05-09T16:51:07.896Z,93638.92
2019-05-09T16:53:36.811Z,93638.01
2019-05-09T16:56:08.052Z,93637.17
2019-05-09T16:58:37.929Z,93636.31
2019-05-09T17:01:08.309Z,93639.78
2019-05-09T17:03:37.100Z,93644.30
2019-05-09T17:06:07.686Z,93648.61
2019-05-09T17:08:38.437Z,93647.95
2019-05-09T17:11:07.730Z,93650.10
2019-05-09T17:13:36.445Z,93643.55
2019-05-09T17:16:07.577Z,93653.09
2019-05-09T17:18:38.153Z,93644.73
2019-05-09T17:21:18.326Z,93643.08
2019-05-09T17:23:38.967Z,93644.73
2019-05-09T17:26:08.356Z,93646.67
2019-05-09T17:28:37.678Z,93647.43
2019-05-09T17:31:08.643Z,93652.56
2019-05-09T17:33:37.906Z,93655.30
2019-05-09T17:36:06.754Z,93640.94
2019-05-09T17:38:35.466Z,93649.34
2019-05-09T17:41:04.267Z,93649.95
2019-05-09T17:43:32.966Z,93645.75
2019-05-09T17:46:01.640Z,93644.94
2019-05-09T17:48:30.331Z,93641.78
2019-05-09T17:50:59.007Z,93642.84
2019-05-09T17:53:29.218Z,93640.92
2019-05-09T17:55:58.756Z,93642.40
2019-05-09T17:58:32.904Z,93635.31
2019-05-09T18:00:57.959Z,93631.45
2019-05-09T18:03:28.894Z,93625.67
2019-05-09T18:05:57.700Z,93624.55
2019-05-09T18:08:28.387Z,93626.80
2019-05-09T18:10:58.312Z,93623.79
2019-05-09T18:13:30.063Z,93619.27
2019-05-09T18:15:57.944Z,93609.28
2019-05-09T18:18:28.437Z,93609.64
2019-05-09T18:20:57.992Z,93605.04
2019-05-09T18:23:28.372Z,93606.52
2019-05-09T18:25:58.503Z,93599.91
2019-05-09T18:28:29.287Z,93600.84
2019-05-09T18:30:58.490Z,93606.61
2019-05-09T18:33:28.972Z,93607.28
2019-05-09T18:35:57.763Z,93609.55
2019-05-09T18:38:32.346Z,93616.17
2019-05-09T18:41:01.037Z,93617.83
2019-05-09T18:43:29.726Z,93618.16
2019-05-09T18:45:58.513Z,93631.23
2019-05-09T18:48:27.930Z,93645.26
2019-05-09T18:50:56.859Z,93638.85
2019-05-09T18:53:25.546Z,93645.66
2019-05-09T18:55:54.227Z,93643.66
2019-05-09T18:58:22.913Z,93651.08
2019-05-09T19:00:53.142Z,93645.20
2019-05-09T19:03:21.886Z,93637.43
2019-05-09T19:05:50.539Z,93639.92
2019-05-09T19:08:19.360Z,93635.02
2019-05-09T19:10:51.949Z,93637.49
2019-05-09T19:13:18.541Z,93627.95
2019-05-09T19:15:58.305Z,93621.27
2019-05-09T19:18:26.799Z,93625.23
2019-05-09T19:20:57.050Z,93638.41
2019-05-09T19:23:25.773Z,93621.10
2019-05-09T19:25:54.464Z,93618.70
2019-05-09T19:28:24.343Z,93641.06
2019-05-09T19:30:53.142Z,93641.81
2019-05-09T19:33:21.831Z,93634.09
2019-05-09T19:35:50.583Z,93642.50
2019-05-09T19:38:19.278Z,93644.30
2019-05-09T19:40:47.977Z,93640.45
2019-05-09T19:43:16.703Z,93642.78
2019-05-09T19:45:45.404Z,93650.20
2019-05-09T19:48:14.079Z,93651.00
2019-05-09T19:50:42.763Z,93645.39
2019-05-09T19:53:11.434Z,93647.64
2019-05-09T19:55:40.156Z,93644.19
2019-05-09T19:58:08.903Z,93639.53
2019-05-09T20:00:37.689Z,93625.47
2019-05-09T20:03:06.442Z,93632.08
2019-05-09T20:05:35.122Z,93630.59
2019-05-09T20:08:03.834Z,93630.36
2019-05-09T20:10:50.182Z,93633.69
2019-05-09T20:13:20.459Z,93631.60
2019-05-09T20:15:49.198Z,93628.03
2019-05-09T20:18:17.890Z,93631.77
2019-05-09T20:20:46.642Z,93640.01
2019-05-09T20:23:15.349Z,93628.83
2019-05-09T20:25:44.063Z,93637.13
2019-05-09T20:28:12.757Z,93634.95
2019-05-09T20:30:41.424Z,93643.58
2019-05-09T20:33:10.130Z,93643.81
2019-05-09T20:35:38.817Z,93638.72
2019-05-09T20:38:07.903Z,93642.09
2019-05-09T20:40:37.120Z,93639.32
2019-05-09T20:43:05.989Z,93639.34
2019-05-09T20:45:34.852Z,93642.28
2019-05-09T20:48:04.423Z,93636.78
2019-05-09T20:50:33.288Z,93631.20
2019-05-09T20:53:09.449Z,93633.08
2019-05-09T20:55:32.794Z,93638.97
2019-05-09T20:58:01.743Z,93639.61
2019-05-09T21:00:30.706Z,93638.42
2019-05-09T21:02:59.586Z,93618.91
2019-05-09T21:05:28.468Z,93641.65
2019-05-09T21:07:57.490Z,93633.48
2019-05-09T21:10:26.358Z,93624.62
2019-05-09T21:12:55.242Z,93622.03
2019-05-09T21:15:24.237Z,93623.33
2019-05-09T21:17:53.072Z,93609.09
2019-05-09T21:20:22.376Z,93606.09
2019-05-09T21:22:51.237Z,93610.66
2019-05-09T21:25:20.116Z,93608.20
2019-05-09T21:27:49.007Z,93604.61
2019-05-09T21:30:18.068Z,93606.16
2019-05-09T21:32:46.926Z,93598.87
2019-05-09T21:35:15.620Z,93601.53
2019-05-09T21:37:44.295Z,93590.73
2019-05-09T21:40:13.124Z,93592.66
2019-05-09T21:42:41.974Z,93593.68
2019-05-09T21:45:10.665Z,93553.86
2019-05-09T21:47:39.508Z,93600.52
2019-05-09T21:50:08.476Z,93597.58
2019-05-09T21:52:37.222Z,93600.98
2019-05-09T21:55:05.922Z,93597.79
2019-05-09T21:57:34.633Z,93602.79
2019-05-09T22:00:07.342Z,93605.67
2019-05-09T22:02:35.669Z,93610.52
2019-05-09T22:05:06.635Z,93618.29
2019-05-09T22:07:35.360Z,93624.13
2019-05-09T22:10:06.368Z,93629.19
2019-05-09T22:12:35.053Z,93623.22
2019-05-09T22:15:05.137Z,93639.56
2019-05-09T22:17:40.217Z,93635.06
2019-05-09T22:20:14.537Z,93621.08
2019-05-09T22:22:43.663Z,93633.20
2019-05-09T22:25:13.523Z,93632.92
2019-05-09T22:27:42.189Z,93629.23
2019-05-09T22:30:13.833Z,93627.36
2019-05-09T22:32:42.599Z,93632.02
2019-05-09T22:35:11.781Z,93621.42
2019-05-09T22:37:40.462Z,93602.45
2019-05-09T22:40:10.042Z,93605.09
2019-05-09T22:42:38.731Z,93601.71
2019-05-09T22:45:09.161Z,93596.33
2019-05-09T22:47:37.956Z,93587.61
2019-05-09T22:50:07.510Z,93586.34
2019-05-09T22:52:36.184Z,93586.91
2019-05-09T22:55:06.378Z,93577.13
2019-05-09T22:57:35.055Z,93587.53
2019-05-09T23:00:04.520Z,93592.42
2019-05-09T23:02:33.188Z,93587.55
2019-05-09T23:05:01.890Z,93585.73
2019-05-09T23:07:30.576Z,93583.16
2019-05-09T23:09:59.305Z,93570.77
2019-05-09T23:12:28.002Z,93564.78
2019-05-09T23:14:56.698Z,93560.62
2019-05-09T23:17:25.372Z,93562.41
2019-05-09T23:19:54.064Z,93576.70
2019-05-09T23:22:24.356Z,93559.98
2019-05-09T23:24:53.062Z,93568.59
2019-05-09T23:27:21.733Z,93579.89
2019-05-09T23:29:50.435Z,93590.56
2019-05-09T23:32:29.715Z,93570.55
2019-05-09T23:34:58.389Z,93546.83
2019-05-09T23:37:27.095Z,93558.56
2019-05-09T23:39:57.277Z,93570.80
2019-05-09T23:42:26.035Z,93571.55
2019-05-09T23:44:54.718Z,93554.61
2019-05-09T23:47:23.498Z,93555.45
2019-05-09T23:49:52.191Z,93563.33
2019-05-09T23:52:20.960Z,93551.72
2019-05-09T23:55:07.257Z,93562.47
2019-05-09T23:57:53.557Z,93573.66
